Time;durP1;ratioP1;P1;durP2;ratioP2;P2;SDS_P1;SDS_P2;PMS_P1;PMS_P2;Temp;Humidity;BMP_temperature;BMP_pressure;BME280_temperature;BME280_humidity;BME280_pressure;Samples;Min_cycle;Max_cycle;Signal;HPM_P1;HPM_P2
2023/10/07 00:01:24;;;;;;;6.22;1.95;;;16.90;99.90;;;;;;4953501;29;20108;-62
2023/10/07 00:03:53;;;;;;;;;;;16.90;99.90;;;;;;4953445;29;20100;-62
2023/10/07 00:06:19;;;;;;;9.70;1.92;;;16.90;99.90;;;;;;4950660;28;20386;-62
2023/10/07 00:08:45;;;;;;;11.05;1.80;;;17.00;99.90;;;;;;4950339;29;20043;-62
2023/10/07 00:11:11;;;;;;;8.68;1.33;;;17.00;99.90;;;;;;4949690;29;20043;-62
2023/10/07 00:13:41;;;;;;;5.90;1.35;;;17.00;99.90;;;;;;4934215;29;20498;-62
2023/10/07 00:16:10;;;;;;;8.20;1.88;;;17.10;99.90;;;;;;4950267;29;20407;-63
2023/10/07 00:18:36;;;;;;;8.90;2.35;;;17.10;99.90;;;;;;4949761;29;20039;-62
2023/10/07 00:21:03;;;;;;;5.78;1.90;;;17.10;99.90;;;;;;4950196;29;20403;-63
2023/10/07 00:23:28;;;;;;;2.80;1.27;;;17.10;99.90;;;;;;4944157;28;20148;-62
2023/10/07 00:25:56;;;;;;;5.60;1.48;;;17.10;99.90;;;;;;4917911;29;20078;-62
2023/10/07 00:28:33;;;;;;;4.40;1.60;;;17.10;99.90;;;;;;4943931;29;20101;-62
2023/10/07 00:31:02;;;;;;;5.25;1.50;;;17.10;99.90;;;;;;4949202;29;20052;-61
2023/10/07 00:33:49;;;;;;;;;;;17.10;99.90;;;;;;4950216;29;20411;-62
2023/10/07 00:36:41;;;;;;;2.17;1.08;;;17.20;99.90;;;;;;4934110;29;19933;-62
2023/10/07 00:39:07;;;;;;;5.63;1.35;;;17.20;99.90;;;;;;4948970;28;20047;-62
2023/10/07 00:41:45;;;;;;;2.85;0.93;;;17.20;99.90;;;;;;4949697;29;20141;-62
2023/10/07 00:44:23;;;;;;;2.38;1.17;;;17.20;99.90;;;;;;4948940;29;20091;-62
2023/10/07 00:47:07;;;;;;;4.30;1.25;;;17.20;99.90;;;;;;4948884;29;20055;-62
2023/10/07 00:49:40;;;;;;;5.75;1.00;;;17.20;99.90;;;;;;4932228;29;20051;-62
2023/10/07 00:52:11;;;;;;;3.92;1.08;;;17.20;99.90;;;;;;4931490;28;20043;-62
2023/10/07 00:57:24;;;;;;;4.35;1.13;;;17.30;99.90;;;;;;4950790;28;20039;-62
2023/10/07 00:59:51;;;;;;;8.30;1.38;;;17.20;99.90;;;;;;4949493;28;20377;-62
2023/10/07 01:02:33;;;;;;;5.55;1.33;;;17.20;99.90;;;;;;4949482;29;20055;-62
2023/10/07 01:05:06;;;;;;;3.22;1.13;;;17.20;99.90;;;;;;4949666;29;20134;-62
2023/10/07 01:07:34;;;;;;;2.95;1.15;;;17.20;99.90;;;;;;4950017;28;20044;-62
2023/10/07 01:12:39;;;;;;;2.83;1.55;;;17.30;99.90;;;;;;4949343;29;20055;-62
2023/10/07 01:15:17;;;;;;;3.45;1.23;;;17.30;99.90;;;;;;4948921;29;20165;-62
2023/10/07 01:18:05;;;;;;;2.25;0.93;;;17.30;99.90;;;;;;4949411;28;20051;-62
2023/10/07 01:23:19;;;;;;;3.70;1.35;;;17.30;99.90;;;;;;4943339;28;20568;-62
2023/10/07 01:25:50;;;;;;;4.60;1.25;;;17.30;99.90;;;;;;4934573;29;20050;-61
2023/10/07 01:28:16;;;;;;;4.18;1.00;;;17.30;99.90;;;;;;4953494;28;20046;-62
2023/10/07 01:31:18;;;;;;;5.03;1.20;;;17.30;99.90;;;;;;4968525;28;20078;-63
2023/10/07 01:33:39;;;;;;;4.15;1.30;;;17.30;99.90;;;;;;4965325;28;20039;-62
2023/10/07 01:38:40;;;;;;;4.70;1.42;;;17.30;99.90;;;;;;4967543;28;20047;-62
2023/10/07 01:41:07;;;;;;;4.93;1.38;;;17.30;99.90;;;;;;4932425;29;20503;-62
2023/10/07 01:43:39;;;;;;;3.65;1.13;;;17.30;99.90;;;;;;4948554;29;20071;-62
2023/10/07 01:46:10;;;;;;;2.90;1.23;;;17.20;99.90;;;;;;4928803;29;20059;-62
2023/10/07 01:48:37;;;;;;;2.80;0.95;;;17.20;99.90;;;;;;4928620;29;20147;-62
2023/10/07 01:51:05;;;;;;;3.78;1.58;;;17.20;99.90;;;;;;4930819;29;20083;-62
2023/10/07 01:53:32;;;;;;;5.93;1.35;;;17.20;99.90;;;;;;4930007;28;20043;-62
2023/10/07 01:55:58;;;;;;;4.78;2.10;;;17.20;99.90;;;;;;4948049;29;20118;-62
2023/10/07 01:58:25;;;;;;;3.92;1.75;;;17.30;99.90;;;;;;4950011;28;20122;-62
2023/10/07 02:00:57;;;;;;;6.50;1.23;;;17.30;99.90;;;;;;4948459;29;20050;-62
2023/10/07 02:03:23;;;;;;;4.47;1.80;;;17.30;99.90;;;;;;4948563;29;20559;-62
2023/10/07 02:05:50;;;;;;;8.40;1.48;;;17.30;99.90;;;;;;4932835;29;20369;-62
2023/10/07 02:08:20;;;;;;;5.57;1.70;;;17.30;99.90;;;;;;4948736;29;20035;-63
2023/10/07 02:10:50;;;;;;;5.45;1.45;;;17.30;99.90;;;;;;4949096;28;20475;-61
2023/10/07 02:13:21;;;;;;;8.05;1.92;;;17.30;99.90;;;;;;4948372;29;20510;-62
2023/10/07 02:15:48;;;;;;;6.68;1.00;;;17.30;99.90;;;;;;4949789;28;20418;-62
2023/10/07 02:18:17;;;;;;;3.50;0.82;;;17.30;99.90;;;;;;4948318;29;20036;-62
2023/10/07 02:20:52;;;;;;;3.92;1.50;;;17.30;99.90;;;;;;4949557;28;20491;-62
2023/10/07 02:23:43;;;;;;;6.80;0.93;;;17.30;99.90;;;;;;4941922;28;20043;-62
2023/10/07 02:26:16;;;;;;;1.90;0.85;;;17.30;99.90;;;;;;4949383;28;20044;-62
2023/10/07 02:28:43;;;;;;;3.78;1.48;;;17.30;99.90;;;;;;4947648;29;20074;-62
2023/10/07 02:31:15;;;;;;;2.15;1.02;;;17.30;99.90;;;;;;4948784;28;20047;-62
2023/10/07 02:33:42;;;;;;;4.18;1.17;;;17.30;99.90;;;;;;4949645;28;20043;-62
2023/10/07 02:36:36;;;;;;;5.15;1.33;;;17.30;99.90;;;;;;4948033;29;20051;-62
2023/10/07 02:39:18;;;;;;;3.08;1.10;;;17.20;99.90;;;;;;4947398;29;20097;-62
2023/10/07 02:41:47;;;;;;;4.88;1.23;;;17.20;99.90;;;;;;4948076;29;20141;-62
2023/10/07 02:44:27;;;;;;;5.72;1.30;;;17.20;99.90;;;;;;4947314;29;20095;-62
2023/10/07 02:46:56;;;;;;;2.65;1.10;;;17.20;99.90;;;;;;4947833;29;20051;-62
2023/10/07 02:49:25;;;;;;;5.10;1.63;;;17.10;99.90;;;;;;4947871;29;20445;-62
2023/10/07 02:51:57;;;;;;;6.35;1.27;;;17.10;99.90;;;;;;4930743;29;20048;-62
2023/10/07 02:54:28;;;;;;;5.38;1.90;;;17.20;99.90;;;;;;4933816;28;20043;-62
2023/10/07 02:56:55;;;;;;;1.80;0.82;;;17.20;99.90;;;;;;4928677;29;20044;-62
2023/10/07 02:59:27;;;;;;;2.97;1.40;;;17.20;99.90;;;;;;4928145;29;20418;-62
2023/10/07 03:04:42;;;;;;;3.88;1.48;;;17.20;99.90;;;;;;4929152;29;20058;-62
2023/10/07 03:07:15;;;;;;;3.33;0.95;;;17.20;99.90;;;;;;4928066;29;20052;-62
2023/10/07 03:09:43;;;;;;;3.35;1.10;;;17.30;99.90;;;;;;4928514;29;20110;-62
2023/10/07 03:12:13;;;;;;;3.73;1.13;;;17.30;99.90;;;;;;4928358;29;20048;-63
2023/10/07 03:14:39;;;;;;;5.18;1.33;;;17.30;99.90;;;;;;4928625;29;20302;-62
2023/10/07 03:17:16;;;;;;;4.65;1.75;;;17.30;99.90;;;;;;4928499;29;20504;-62
2023/10/07 03:22:43;;;;;;;5.57;1.33;;;17.30;99.90;;;;;;4927411;28;20047;-62
2023/10/07 03:25:16;;;;;;;1.45;0.93;;;17.30;99.90;;;;;;4938217;29;20123;-62
2023/10/07 03:27:49;;;;;;;3.50;1.20;;;17.30;99.90;;;;;;4927760;29;20051;-62
2023/10/07 03:30:19;;;;;;;3.83;1.25;;;17.30;99.90;;;;;;4928241;28;20052;-62
2023/10/07 03:32:57;;;;;;;;;;;17.30;99.90;;;;;;4943988;28;20040;-62
2023/10/07 03:35:35;;;;;;;2.47;1.20;;;17.30;99.90;;;;;;4947680;29;19958;-62
2023/10/07 03:38:13;;;;;;;3.78;1.23;;;17.30;99.90;;;;;;4947431;29;20122;-62
2023/10/07 03:40:39;;;;;;;3.90;1.50;;;17.30;99.90;;;;;;4946970;29;20122;-62
2023/10/07 03:43:08;;;;;;;3.58;1.40;;;17.40;99.90;;;;;;4950411;29;20138;-63
2023/10/07 03:45:36;;;;;;;4.47;1.05;;;17.40;99.90;;;;;;4950547;29;20051;-62
2023/10/07 03:48:20;;;;;;;6.60;1.40;;;17.40;99.90;;;;;;4934105;28;20052;-62
2023/10/07 03:50:48;;;;;;;4.55;1.77;;;17.40;99.90;;;;;;4950719;29;20142;-62
2023/10/07 03:53:15;;;;;;;5.15;1.17;;;17.40;99.90;;;;;;4949726;29;20519;-62
2023/10/07 03:55:43;;;;;;;5.45;1.52;;;17.40;99.90;;;;;;4949744;29;20101;-62
2023/10/07 03:58:09;;;;;;;6.15;1.60;;;17.40;99.90;;;;;;4950688;28;20047;-62
2023/10/07 04:00:35;;;;;;;5.78;1.48;;;17.40;99.90;;;;;;4951616;28;20129;-62
2023/10/07 04:03:07;;;;;;;4.95;1.08;;;17.40;99.90;;;;;;4950998;28;20388;-62
2023/10/07 04:05:36;;;;;;;6.72;1.50;;;17.40;99.90;;;;;;4950703;29;20047;-62
2023/10/07 04:08:02;;;;;;;3.67;1.05;;;17.40;99.90;;;;;;4949862;29;20074;-62
2023/10/07 04:10:36;;;;;;;4.55;1.63;;;17.40;99.90;;;;;;4950388;29;20124;-62
2023/10/07 04:13:07;;;;;;;2.13;1.25;;;17.40;99.90;;;;;;4950296;29;20050;-62
2023/10/07 04:15:44;;;;;;;4.60;1.05;;;17.40;99.90;;;;;;4949495;29;20039;-62
2023/10/07 04:18:10;;;;;;;3.85;1.38;;;17.40;99.90;;;;;;4934465;29;20083;-62
2023/10/07 04:20:57;;;;;;;7.28;1.30;;;17.40;99.90;;;;;;4951053;28;20092;-62
2023/10/07 04:23:26;;;;;;;3.38;1.48;;;17.40;99.90;;;;;;4943492;28;20499;-62
2023/10/07 04:25:56;;;;;;;7.57;1.25;;;17.40;99.90;;;;;;4934667;28;20040;-62
2023/10/07 04:28:25;;;;;;;4.72;1.45;;;17.40;99.90;;;;;;4942574;29;20040;-62
2023/10/07 04:30:53;;;;;;;2.75;0.93;;;17.40;99.90;;;;;;4949211;28;20047;-62
2023/10/07 04:33:25;;;;;;;2.92;0.93;;;17.40;99.90;;;;;;4949774;29;20735;-62
2023/10/07 04:35:53;;;;;;;3.92;1.10;;;17.40;99.90;;;;;;4949286;29;20047;-62
2023/10/07 04:43:37;;;;;;;3.38;1.00;;;17.30;99.90;;;;;;4949113;28;20193;-62
2023/10/07 04:46:20;;;;;;;6.68;1.27;;;17.30;99.90;;;;;;4934050;29;20391;-62
2023/10/07 04:48:55;;;;;;;3.72;1.10;;;17.30;99.90;;;;;;4949903;29;20115;-62
2023/10/07 04:54:10;;;;;;;4.03;0.95;;;17.20;99.90;;;;;;4937291;29;20051;-62
2023/10/07 04:56:37;;;;;;;7.78;1.70;;;17.10;99.90;;;;;;4929778;29;20469;-62
2023/10/07 04:59:06;;;;;;;4.38;0.93;;;17.10;99.90;;;;;;4929587;29;20043;-62
2023/10/07 05:01:35;;;;;;;1.95;0.82;;;17.10;99.90;;;;;;4931558;29;20211;-62
2023/10/07 05:04:04;;;;;;;7.22;1.05;;;17.10;99.90;;;;;;4929703;29;20059;-62
2023/10/07 05:06:34;;;;;;;3.47;0.93;;;17.10;99.90;;;;;;4930927;29;20496;-62
2023/10/07 05:09:10;;;;;;;3.13;0.98;;;17.10;99.90;;;;;;4931597;29;20053;-62
2023/10/07 05:11:40;;;;;;;2.42;0.90;;;17.00;99.90;;;;;;4929686;29;20051;-63
2023/10/07 05:14:07;;;;;;;3.85;1.15;;;17.00;99.90;;;;;;4966998;28;20517;-62
2023/10/07 05:16:34;;;;;;;5.47;1.10;;;17.00;99.90;;;;;;4959705;28;20051;-62
2023/10/07 05:19:00;;;;;;;3.90;1.40;;;17.00;99.90;;;;;;4948808;29;20062;-62
2023/10/07 05:21:27;;;;;;;5.45;1.15;;;17.00;99.90;;;;;;4950465;28;20516;-62
2023/10/07 05:23:53;;;;;;;4.65;1.38;;;17.00;99.90;;;;;;4944235;28;20484;-62
2023/10/07 05:26:19;;;;;;;1.83;1.23;;;16.90;99.90;;;;;;4948431;29;20076;-62
2023/10/07 05:28:45;;;;;;;5.15;1.40;;;16.90;99.90;;;;;;4950293;28;20118;-62
2023/10/07 05:31:14;;;;;;;4.82;1.27;;;16.90;99.90;;;;;;4948849;29;20483;-62
2023/10/07 05:33:42;;;;;;;3.40;1.20;;;16.90;99.90;;;;;;4949508;28;20059;-63
2023/10/07 05:36:13;;;;;;;3.35;1.67;;;16.90;99.90;;;;;;4948896;29;20049;-63
2023/10/07 05:38:50;;;;;;;5.80;1.20;;;16.90;99.90;;;;;;4950137;28;20043;-63
2023/10/07 05:41:16;;;;;;;2.70;0.95;;;16.90;99.90;;;;;;4950167;28;20057;-63
2023/10/07 05:43:44;;;;;;;4.05;1.25;;;16.90;99.90;;;;;;4948662;28;20059;-63
2023/10/07 05:46:13;;;;;;;2.45;0.90;;;16.90;99.90;;;;;;4948257;29;20408;-62
2023/10/07 05:48:40;;;;;;;2.45;1.35;;;16.90;99.90;;;;;;4948771;28;20130;-63
2023/10/07 05:51:09;;;;;;;8.05;1.23;;;16.90;99.90;;;;;;4948488;29;20130;-63
2023/10/07 05:53:40;;;;;;;1.85;0.93;;;16.90;99.90;;;;;;4939718;29;20507;-63
2023/10/07 05:56:07;;;;;;;1.23;0.68;;;16.90;99.90;;;;;;4930012;29;20044;-63
2023/10/07 05:58:34;;;;;;;4.78;1.70;;;16.90;99.90;;;;;;4928870;29;20883;-63
2023/10/07 06:01:00;;;;;;;4.57;1.00;;;16.90;99.90;;;;;;4929811;29;20082;-63
2023/10/07 06:03:28;;;;;;;2.72;1.17;;;16.90;99.90;;;;;;4928760;29;20127;-63
2023/10/07 06:05:57;;;;;;;3.03;0.60;;;17.00;99.90;;;;;;4913601;29;20094;-63
2023/10/07 06:08:27;;;;;;;5.00;1.30;;;16.90;99.90;;;;;;4934475;28;20047;-63
2023/10/07 06:10:56;;;;;;;2.83;0.90;;;17.00;99.90;;;;;;4967601;28;20058;-62
2023/10/07 06:13:22;;;;;;;4.55;0.90;;;17.00;99.90;;;;;;4954722;28;20043;-62
2023/10/07 06:15:49;;;;;;;5.20;1.48;;;17.00;99.90;;;;;;4949031;28;20051;-63
2023/10/07 06:18:18;;;;;;;4.03;1.13;;;17.00;99.90;;;;;;4949491;28;20045;-63
2023/10/07 06:20:48;;;;;;;8.00;1.33;;;17.00;99.90;;;;;;4948138;28;20050;-63
2023/10/07 06:23:14;;;;;;;1.63;0.77;;;17.00;99.90;;;;;;4947711;28;20062;-62
2023/10/07 06:25:48;;;;;;;4.05;0.95;;;17.00;99.90;;;;;;4934334;29;20051;-63
2023/10/07 06:34:32;;;;;;;7.05;1.02;;;17.10;99.90;;;;;;4941573;28;19933;-63
2023/10/07 06:36:52;;;;;;;6.40;1.10;;;17.10;99.90;;;;;;4946951;28;20134;-64
2023/10/07 06:39:27;;;;;;;6.30;1.40;;;17.10;99.90;;;;;;4948418;29;20047;-62
2023/10/07 06:41:55;;;;;;;6.07;1.35;;;17.10;99.90;;;;;;4947679;29;20055;-63
2023/10/07 06:44:23;;;;;;;3.05;0.75;;;17.10;99.90;;;;;;4931851;29;20055;-63
2023/10/07 06:46:55;;;;;;;4.50;1.52;;;17.20;99.90;;;;;;4947808;29;20496;-63
2023/10/07 06:49:21;;;;;;;2.67;1.45;;;17.20;99.90;;;;;;4947617;29;20413;-62
2023/10/07 06:51:56;;;;;;;5.63;1.20;;;17.20;99.90;;;;;;4948883;28;20506;-63
2023/10/07 06:54:32;;;;;;;5.22;1.10;;;17.30;99.90;;;;;;4933786;29;20534;-62
2023/10/07 06:57:04;;;;;;;3.60;1.30;;;17.30;99.90;;;;;;4928172;29;20079;-63
2023/10/07 06:59:30;;;;;;;4.07;1.17;;;17.30;99.90;;;;;;4929976;29;20455;-63
2023/10/07 07:01:56;;;;;;;3.70;0.98;;;17.30;99.90;;;;;;4928482;29;20488;-63
2023/10/07 07:04:23;;;;;;;3.17;0.88;;;17.40;99.90;;;;;;4929549;28;20121;-65
2023/10/07 07:07:11;;;;;;;4.78;1.60;;;17.40;99.90;;;;;;4968194;28;20074;-63
2023/10/07 07:09:50;;;;;;;8.10;1.27;;;17.50;99.90;;;;;;4955196;28;20039;-63
2023/10/07 07:12:18;;;;;;;3.85;1.45;;;17.50;99.90;;;;;;4948026;29;20109;-63
2023/10/07 07:17:30;;;;;;;7.97;1.33;;;17.60;99.90;;;;;;4950576;28;20161;-63
2023/10/07 07:22:46;;;;;;;10.75;1.88;;;17.70;99.90;;;;;;4946724;28;20100;-63
2023/10/07 07:25:39;;;;;;;6.40;1.42;;;17.70;99.90;;;;;;4939749;29;20048;-63
2023/10/07 07:28:06;;;;;;;2.47;1.15;;;17.80;99.90;;;;;;4932899;28;20557;-63
2023/10/07 07:30:32;;;;;;;2.78;1.40;;;17.80;99.90;;;;;;4931673;29;20511;-63
2023/10/07 07:33:00;;;;;;;5.00;1.20;;;17.80;99.90;;;;;;4948526;29;20050;-63
2023/10/07 07:35:39;;;;;;;6.47;1.20;;;17.80;99.90;;;;;;4950901;29;20054;-63
2023/10/07 07:40:44;;;;;;;;;;;17.70;99.90;;;;;;4952719;28;20051;-62
2023/10/07 07:43:13;;;;;;;5.32;1.50;;;17.70;99.90;;;;;;4950763;29;19922;-63
2023/10/07 07:45:40;;;;;;;4.18;1.10;;;17.70;99.90;;;;;;4951252;28;20044;-63
2023/10/07 07:48:07;;;;;;;6.28;1.40;;;17.70;99.90;;;;;;4950713;29;20039;-63
2023/10/07 07:50:39;;;;;;;10.00;1.92;;;17.70;99.90;;;;;;4934773;29;20223;-63
2023/10/07 07:53:09;;;;;;;4.63;1.27;;;17.70;99.90;;;;;;4929998;29;20032;-63
2023/10/07 07:55:43;;;;;;;2.67;1.20;;;17.80;99.90;;;;;;4931501;29;20126;-62
2023/10/07 07:58:10;;;;;;;4.03;1.27;;;17.80;99.90;;;;;;4931443;29;20074;-63
2023/10/07 08:00:44;;;;;;;2.30;1.08;;;17.80;99.90;;;;;;4931898;28;20553;-63
2023/10/07 08:03:12;;;;;;;3.17;1.30;;;17.80;99.90;;;;;;4970861;28;20046;-63
2023/10/07 08:05:41;;;;;;;5.72;1.52;;;17.80;99.90;;;;;;4941746;29;20047;-63
2023/10/07 08:08:19;;;;;;;7.57;1.52;;;17.80;99.90;;;;;;4949630;29;20066;-63
2023/10/07 08:10:46;;;;;;;5.80;1.23;;;17.70;99.90;;;;;;4950608;29;20188;-63
2023/10/07 08:13:17;;;;;;;5.60;1.48;;;17.80;99.90;;;;;;4949791;29;20118;-63
2023/10/07 08:15:47;;;;;;;5.40;0.90;;;17.80;99.90;;;;;;4934521;29;20039;-63
2023/10/07 08:18:13;;;;;;;2.83;1.55;;;17.80;99.90;;;;;;4934544;29;20217;-63
2023/10/07 08:20:44;;;;;;;3.33;1.08;;;17.90;99.90;;;;;;4933720;29;20526;-63
2023/10/07 08:23:22;;;;;;;7.40;1.25;;;18.00;99.90;;;;;;4944192;28;20055;-63
2023/10/07 08:25:49;;;;;;;6.35;1.92;;;18.10;99.90;;;;;;4935092;29;20075;-63
2023/10/07 08:28:18;;;;;;;7.50;1.35;;;18.10;99.90;;;;;;4937920;29;20058;-63
2023/10/07 08:30:48;;;;;;;4.22;0.98;;;18.20;99.90;;;;;;4951037;28;20047;-63
2023/10/07 08:33:15;;;;;;;3.85;1.30;;;18.20;99.90;;;;;;4950361;28;20042;-65
2023/10/07 08:35:44;;;;;;;6.78;1.95;;;18.20;99.90;;;;;;4949138;29;20048;-64
2023/10/07 08:38:20;;;;;;;7.10;1.58;;;18.20;99.90;;;;;;4949965;29;20055;-63
2023/10/07 08:41:04;;;;;;;3.22;1.55;;;18.20;99.90;;;;;;4950487;28;20065;-63
2023/10/07 08:43:45;;;;;;;5.95;1.63;;;18.20;99.90;;;;;;4950365;28;20059;-63
2023/10/07 08:46:16;;;;;;;5.88;1.20;;;18.20;99.90;;;;;;4949360;29;20051;-63
2023/10/07 08:51:49;;;;;;;4.18;1.63;;;18.30;99.90;;;;;;4890621;29;20057;-63
2023/10/07 08:54:17;;;;;;;2.17;1.10;;;18.30;99.90;;;;;;4872683;29;20489;-63
2023/10/07 08:56:54;;;;;;;7.85;1.60;;;18.40;99.90;;;;;;4909052;29;20740;-63
2023/10/07 08:59:25;;;;;;;3.45;1.38;;;18.50;99.90;;;;;;4872008;29;20085;-64
2023/10/07 09:02:00;;;;;;;5.68;1.52;;;18.60;99.90;;;;;;4876758;29;20098;-63
2023/10/07 09:04:33;;;;;;;3.80;1.50;;;18.90;99.90;;;;;;4893860;29;20067;-63
2023/10/07 09:07:08;;;;;;;4.80;1.65;;;19.20;99.90;;;;;;4909042;29;20052;-63
2023/10/07 09:09:43;;;;;;;7.38;1.90;;;19.60;99.90;;;;;;4882872;29;20081;-63
2023/10/07 09:12:30;;;;;;;6.38;1.65;;;20.10;99.90;;;;;;4890550;29;20068;-63
2023/10/07 09:14:59;;;;;;;4.78;1.77;;;20.60;99.90;;;;;;4973045;28;20052;-63
2023/10/07 09:17:26;;;;;;;4.30;1.17;;;20.90;99.90;;;;;;4890009;29;20048;-63
2023/10/07 09:19:58;;;;;;;6.40;2.10;;;21.00;99.90;;;;;;4890191;28;20060;-63
2023/10/07 09:22:36;;;;;;;4.82;1.35;;;21.10;99.90;;;;;;4972042;28;20047;-63
2023/10/07 09:25:18;;;;;;;7.93;1.65;;;21.00;99.90;;;;;;4897046;29;20519;-63
2023/10/07 09:27:56;;;;;;;9.93;1.50;;;20.80;99.90;;;;;;4948838;29;20189;-63
2023/10/07 09:30:35;;;;;;;8.47;1.50;;;20.60;99.90;;;;;;4949267;28;20047;-63
2023/10/07 09:33:12;;;;;;;5.55;1.33;;;20.60;99.90;;;;;;4932538;29;20279;-64
2023/10/07 09:35:42;;;;;;;5.20;1.20;;;20.60;99.90;;;;;;4948337;29;20598;-63
2023/10/07 09:38:12;;;;;;;;;;;20.60;99.90;;;;;;4949441;28;20047;-63
2023/10/07 09:43:27;;;;;;;11.40;1.40;;;20.10;99.90;;;;;;4930208;29;20059;-62
2023/10/07 09:45:53;;;;;;;3.10;1.42;;;19.80;99.90;;;;;;4928864;29;20059;-63
2023/10/07 09:48:33;;;;;;;5.63;1.35;;;19.60;99.90;;;;;;4929118;29;20083;-63
2023/10/07 09:51:01;;;;;;;6.03;1.08;;;19.40;99.90;;;;;;4928789;29;20458;-62
2023/10/07 09:53:46;;;;;;;6.13;0.90;;;19.30;99.90;;;;;;4939459;28;20078;-63
2023/10/07 09:56:43;;;;;;;7.53;1.92;;;19.30;99.90;;;;;;4967948;28;20078;-63
2023/10/07 09:59:22;;;;;;;3.92;1.10;;;19.20;99.90;;;;;;4966873;28;20045;-64
2023/10/07 10:01:54;;;;;;;4.25;1.60;;;19.20;99.90;;;;;;4958457;28;20889;-62
2023/10/07 10:04:48;;;;;;;6.55;1.75;;;19.20;99.90;;;;;;4948215;28;20070;-63
2023/10/07 10:07:28;;;;;;;6.35;1.77;;;19.10;99.90;;;;;;4930040;29;20050;-63
2023/10/07 10:17:55;;;;;;;1.98;1.13;;;19.40;99.90;;;;;;4928677;29;20503;-63
2023/10/07 10:20:27;;;;;;;6.78;2.17;;;19.60;99.90;;;;;;4933171;29;20522;-63
2023/10/07 10:23:00;;;;;;;3.90;1.52;;;19.80;99.90;;;;;;4941589;28;20598;-63
2023/10/07 10:25:36;;;;;;;4.75;1.05;;;20.20;99.90;;;;;;4935207;29;20055;-63
2023/10/07 10:28:03;;;;;;;4.07;1.63;;;20.30;99.90;;;;;;4928134;28;20047;-63
2023/10/07 10:30:32;;;;;;;5.30;1.90;;;20.30;99.90;;;;;;4928524;29;20051;-63
2023/10/07 10:33:00;;;;;;;7.00;2.25;;;20.20;99.90;;;;;;4928106;29;20395;-63
2023/10/07 10:35:27;;;;;;;3.05;1.45;;;20.10;99.90;;;;;;4944456;29;20043;-62
2023/10/07 10:37:59;;;;;;;5.10;2.10;;;20.00;99.90;;;;;;4948848;28;20130;-63
2023/10/07 10:40:31;;;;;;;6.25;1.63;;;19.90;99.90;;;;;;4937117;28;20538;-63
2023/10/07 10:42:58;;;;;;;6.43;1.58;;;19.80;99.90;;;;;;4937053;28;20039;-62
2023/10/07 10:45:26;;;;;;;4.93;1.98;;;19.70;99.90;;;;;;4935246;28;20050;-64
2023/10/07 10:47:54;;;;;;;4.97;1.73;;;19.60;99.90;;;;;;4934235;28;20079;-63
2023/10/07 10:50:23;;;;;;;2.47;1.17;;;19.50;99.90;;;;;;4934805;28;20058;-62
2023/10/07 10:52:50;;;;;;;;;;;19.50;99.90;;;;;;4936405;28;20783;-62
2023/10/07 10:55:16;;;;;;;6.93;1.88;;;19.40;99.90;;;;;;4935865;28;20466;-62
2023/10/07 10:57:43;;;;;;;5.47;1.70;;;19.40;99.90;;;;;;4934616;28;20039;-62
2023/10/07 11:00:31;;;;;;;4.88;1.60;;;19.30;99.90;;;;;;4935010;28;20047;-62
2023/10/07 11:02:56;;;;;;;5.70;1.80;;;19.30;99.90;;;;;;4935766;28;20541;-62
2023/10/07 11:05:22;;;;;;;6.38;1.67;;;19.30;99.90;;;;;;4934721;28;20090;-63
2023/10/07 11:07:50;;;;;;;5.10;1.55;;;19.30;99.90;;;;;;4935262;28;20039;-62
2023/10/07 11:10:22;;;;;;;5.88;1.73;;;19.30;99.90;;;;;;4936456;28;20040;-63
2023/10/07 11:12:54;;;;;;;5.05;1.33;;;19.30;99.90;;;;;;4936149;28;20503;-62
2023/10/07 11:15:27;;;;;;;5.47;1.13;;;19.30;99.90;;;;;;4935002;28;20036;-63
2023/10/07 11:17:54;;;;;;;5.93;1.17;;;19.30;99.90;;;;;;4934834;28;20054;-62
2023/10/07 11:20:24;;;;;;;4.22;1.02;;;19.40;99.90;;;;;;4942891;28;20162;-62
2023/10/07 11:22:50;;;;;;;5.15;1.08;;;19.40;99.90;;;;;;4933253;28;20049;-63
2023/10/07 11:25:16;;;;;;;7.47;1.42;;;19.40;99.90;;;;;;4919781;28;20114;-63
2023/10/07 11:27:48;;;;;;;6.70;1.55;;;19.40;99.90;;;;;;4933804;28;20075;-63
2023/10/07 11:30:15;;;;;;;5.97;1.83;;;19.40;99.90;;;;;;4949700;28;20123;-63
2023/10/07 11:32:43;;;;;;;6.97;1.58;;;19.40;99.90;;;;;;4935209;28;20123;-63
2023/10/07 11:35:27;;;;;;;9.15;2.10;;;19.40;99.90;;;;;;4934645;28;20130;-63
2023/10/07 11:38:02;;;;;;;5.07;1.65;;;19.40;99.90;;;;;;4934354;28;20047;-63
2023/10/07 11:40:30;;;;;;;4.25;1.58;;;19.30;99.90;;;;;;4933491;28;20039;-62
2023/10/07 11:42:58;;;;;;;6.07;1.92;;;19.40;99.90;;;;;;4937439;28;20492;-62
2023/10/07 11:45:26;;;;;;;7.70;1.63;;;19.40;99.90;;;;;;4963913;28;20512;-62
2023/10/07 11:47:56;;;;;;;4.07;1.52;;;19.50;99.90;;;;;;4948602;28;20711;-63
2023/10/07 11:50:31;;;;;;;4.45;1.35;;;19.70;99.90;;;;;;4950728;28;20063;-63
2023/10/07 11:53:00;;;;;;;6.05;1.98;;;19.80;99.90;;;;;;4935175;28;20118;-63
2023/10/07 11:55:27;;;;;;;2.77;1.10;;;20.00;99.90;;;;;;4934880;28;20036;-63
2023/10/07 11:57:54;;;;;;;4.78;0.98;;;20.20;99.90;;;;;;4941368;28;20055;-63
2023/10/07 12:00:34;;;;;;;13.07;2.20;;;20.20;99.90;;;;;;4935421;28;20043;-63
2023/10/07 12:03:04;;;;;;;4.95;1.95;;;20.20;99.90;;;;;;4936866;28;20508;-63
2023/10/07 12:05:31;;;;;;;6.30;1.60;;;20.20;99.90;;;;;;4937067;28;20093;-63
2023/10/07 12:08:01;;;;;;;7.60;1.67;;;20.30;99.90;;;;;;4939588;28;20067;-63
2023/10/07 12:10:28;;;;;;;3.40;1.20;;;20.30;99.90;;;;;;4937846;28;20062;-64
2023/10/07 12:12:54;;;;;;;5.35;1.55;;;20.60;99.90;;;;;;4937557;28;20484;-63
2023/10/07 12:15:21;;;;;;;5.45;1.80;;;21.00;99.90;;;;;;4938675;28;20050;-63
2023/10/07 12:17:50;;;;;;;4.15;1.25;;;21.10;99.90;;;;;;4937486;28;20043;-63
2023/10/07 12:20:16;;;;;;;10.52;2.13;;;21.10;99.90;;;;;;4937607;28;20043;-63
2023/10/07 12:22:42;;;;;;;5.78;1.30;;;21.00;99.90;;;;;;4936755;28;20043;-62
2023/10/07 12:25:18;;;;;;;4.80;1.40;;;20.90;99.90;;;;;;4935921;28;20053;-63
2023/10/07 12:27:48;;;;;;;3.47;1.20;;;20.70;99.90;;;;;;4937676;28;20042;-63
2023/10/07 12:30:20;;;;;;;7.63;1.55;;;20.60;99.90;;;;;;4938393;28;20472;-63
2023/10/07 12:32:48;;;;;;;4.38;1.50;;;20.30;99.90;;;;;;4938424;28;20040;-64
2023/10/07 12:35:15;;;;;;;4.70;1.65;;;20.10;99.90;;;;;;4937980;28;20044;-63
2023/10/07 12:37:46;;;;;;;3.75;1.48;;;20.00;99.90;;;;;;4938592;28;20560;-63
2023/10/07 12:40:14;;;;;;;8.75;1.80;;;19.90;99.90;;;;;;4952249;28;20600;-63
2023/10/07 12:42:41;;;;;;;4.85;1.27;;;19.80;99.90;;;;;;4936369;28;20563;-62
2023/10/07 12:45:14;;;;;;;5.75;1.58;;;19.80;99.90;;;;;;4936068;28;20040;-62
2023/10/07 12:47:43;;;;;;;3.42;1.15;;;19.70;99.90;;;;;;4936624;28;20392;-63
2023/10/07 12:52:57;;;;;;;3.05;1.00;;;19.50;99.90;;;;;;4936057;28;20098;-63
2023/10/07 12:55:29;;;;;;;4.70;0.93;;;19.60;99.90;;;;;;4938503;28;20480;-64
2023/10/07 12:57:55;;;;;;;2.38;0.90;;;19.60;99.90;;;;;;4936752;28;20124;-63
2023/10/07 13:00:41;;;;;;;4.88;1.75;;;19.70;99.90;;;;;;4920554;28;20110;-64
2023/10/07 13:03:07;;;;;;;5.40;1.70;;;19.90;99.90;;;;;;4936321;28;20040;-63
2023/10/07 13:05:42;;;;;;;5.40;1.55;;;19.90;99.90;;;;;;4936423;28;20047;-63
2023/10/07 13:08:18;;;;;;;5.10;1.92;;;19.90;99.90;;;;;;4935627;28;20108;-63
2023/10/07 13:10:45;;;;;;;4.70;1.23;;;19.90;99.90;;;;;;4937828;28;20048;-63
2023/10/07 13:13:14;;;;;;;7.60;1.75;;;19.80;99.90;;;;;;4937436;28;20383;-63
2023/10/07 13:15:41;;;;;;;7.53;1.88;;;19.80;99.90;;;;;;4921201;28;20108;-63
2023/10/07 13:18:09;;;;;;;6.18;1.83;;;19.80;99.90;;;;;;4935968;28;20097;-63
2023/10/07 13:20:38;;;;;;;5.43;1.55;;;19.70;99.90;;;;;;4943059;28;20059;-64
2023/10/07 13:23:05;;;;;;;5.80;1.90;;;19.70;99.90;;;;;;4936112;28;20054;-62
2023/10/07 13:25:33;;;;;;;4.35;1.85;;;19.60;99.90;;;;;;4936273;28;20104;-63
2023/10/07 13:28:00;;;;;;;1.92;1.00;;;19.50;99.90;;;;;;4936207;28;20485;-62
2023/10/07 13:30:26;;;;;;;7.03;1.77;;;19.50;99.90;;;;;;4936024;28;20063;-62
2023/10/07 13:32:54;;;;;;;6.50;1.88;;;19.50;99.90;;;;;;4935934;28;20702;-62
2023/10/07 13:35:21;;;;;;;7.03;1.75;;;19.40;99.90;;;;;;4935756;28;20035;-62
2023/10/07 13:37:52;;;;;;;10.85;1.73;;;19.40;99.90;;;;;;4936026;28;20549;-62
2023/10/07 13:40:21;;;;;;;3.28;1.70;;;19.40;99.90;;;;;;4937554;28;20043;-62
2023/10/07 13:42:54;;;;;;;5.03;1.45;;;19.50;99.90;;;;;;4935429;28;20051;-63
2023/10/07 13:45:24;;;;;;;5.95;1.65;;;19.40;99.90;;;;;;4936127;28;20245;-62
2023/10/07 13:47:51;;;;;;;4.45;1.33;;;19.40;99.90;;;;;;4937000;28;20415;-63
2023/10/07 13:50:26;;;;;;;4.43;1.85;;;19.30;99.90;;;;;;4936092;28;20043;-62
2023/10/07 13:55:33;;;;;;;4.22;2.35;;;19.20;99.90;;;;;;4937516;28;20051;-62
2023/10/07 13:58:00;;;;;;;3.65;1.45;;;19.10;99.90;;;;;;4934301;28;20047;-62
2023/10/07 14:03:06;;;;;;;6.05;1.23;;;19.00;99.90;;;;;;4935189;28;20130;-62
2023/10/07 14:05:41;;;;;;;2.83;1.25;;;18.90;99.90;;;;;;4935392;28;20108;-63
2023/10/07 14:08:16;;;;;;;7.93;2.33;;;18.80;99.90;;;;;;4935529;28;20047;-62